Bethalto, Illinois
Current Conditions -  °F | °C
As of 8:45 AM on Monday 24 Nov 2014 (Local Time) from KALN Reporting Station
Overcast Overcast  
Wind Chill: -2°   Ceiling: 2500
Heat Index:   Visibility: 10mi
Dew Point: -1°   Wind: 17mph
Humidity: 75%   Direction: 270°W
Pressure: 29.6"   Gusts: 29mph
Location:  38.91°N, 90.04°W
Report Text: KALN 241445Z 27015G25KT 10SM OVC025 03/M01 A2960
Loading
Personal Weather Stations






























Interactive Weather Map New forecast layout! Learn more

10-Day Weather Forecast

Advertisements
Track Severe Weather on mobile